Time;durP1;ratioP1;P1;durP2;ratioP2;P2;SDS_P1;SDS_P2;PMS_P1;PMS_P2;Temp;Humidity;BMP_temperature;BMP_pressure;BME280_temperature;BME280_humidity;BME280_pressure;Samples;Min_cycle;Max_cycle;Signal;HPM_P1;HPM_P2
2022/08/19 00:00:31;;;;;;;14.90;13.40;;;;;;;21.99;100.00;98367.88;105032;1271;69211;-76
2022/08/19 00:03:06;;;;;;;15.40;13.80;;;;;;;21.95;100.00;98372.21;105269;1268;73265;-77
2022/08/19 00:05:33;;;;;;;14.90;13.40;;;;;;;21.92;100.00;98376.39;105418;1269;61336;-77
2022/08/19 00:08:00;;;;;;;17.20;15.50;;;;;;;21.88;100.00;98376.52;105287;1271;62057;-76
2022/08/19 00:10:28;;;;;;;15.90;14.40;;;;;;;21.84;100.00;98375.38;105297;1271;74779;-76
2022/08/19 00:12:54;;;;;;;16.30;14.80;;;;;;;21.81;100.00;98374.14;105327;1269;68431;-78
2022/08/19 00:15:22;;;;;;;17.10;15.50;;;;;;;21.77;100.00;98370.29;105307;1271;61358;-76
2022/08/19 00:17:49;;;;;;;16.20;14.80;;;;;;;21.75;100.00;98369.71;105181;1271;61571;-77
2022/08/19 00:20:21;;;;;;;15.90;14.50;;;;;;;21.72;100.00;98367.64;105276;1269;62025;-77
2022/08/19 00:22:48;;;;;;;16.10;14.60;;;;;;;21.68;100.00;98362.88;105264;1269;76315;-77
2022/08/19 00:25:15;;;;;;;17.80;15.90;;;;;;;21.65;100.00;98359.66;105288;1271;70345;-76
2022/08/19 00:27:42;;;;;;;17.50;15.90;;;;;;;21.62;100.00;98353.77;105298;1268;72975;-76
2022/08/19 00:30:10;;;;;;;17.50;15.90;;;;;;;21.58;100.00;98349.00;105285;1270;61261;-76
2022/08/19 00:32:37;;;;;;;18.10;16.40;;;;;;;21.54;100.00;98345.84;105175;1272;62100;-76
2022/08/19 00:35:04;;;;;;;17.40;15.70;;;;;;;21.52;100.00;98345.80;105308;1270;76444;-76
2022/08/19 00:37:32;;;;;;;16.60;15.00;;;;;;;21.48;100.00;98349.30;105319;1271;70484;-77
2022/08/19 00:39:59;;;;;;;17.00;15.60;;;;;;;21.47;100.00;98348.88;105296;1271;73256;-77
2022/08/19 00:42:28;;;;;;;17.30;15.70;;;;;;;21.47;100.00;98352.50;105282;1270;61310;-77
2022/08/19 00:44:55;;;;;;;16.30;15.00;;;;;;;21.43;100.00;98350.40;105299;1268;61679;-77
2022/08/19 00:47:21;;;;;;;17.60;15.90;;;;;;;21.42;100.00;98342.63;105291;1271;76470;-77
2022/08/19 00:49:55;;;;;;;20.00;18.20;;;;;;;21.40;100.00;98341.94;105322;1271;69827;-77
2022/08/19 00:52:32;;;;;;;18.50;16.70;;;;;;;21.37;100.00;98341.38;105426;1270;72588;-78
2022/08/19 00:55:01;;;;;;;18.20;16.50;;;;;;;21.36;100.00;98339.01;105349;1271;61348;-76
2022/08/19 00:57:34;;;;;;;18.10;16.40;;;;;;;21.37;100.00;98333.81;105301;1271;61176;-77
2022/08/19 01:00:09;;;;;;;19.00;17.10;;;;;;;21.36;100.00;98332.27;105352;1268;75992;-77
2022/08/19 01:02:36;;;;;;;17.90;16.20;;;;;;;21.34;100.00;98326.56;105391;1271;68958;-75
2022/08/19 01:05:06;;;;;;;19.10;17.30;;;;;;;21.31;100.00;98320.84;105312;1269;73376;-76
2022/08/19 01:07:35;;;;;;;19.70;17.90;;;;;;;21.29;100.00;98321.69;104596;1271;61374;-76
2022/08/19 01:10:02;;;;;;;19.40;17.30;;;;;;;21.27;100.00;98322.73;105320;1270;61470;-77
2022/08/19 01:12:30;;;;;;;19.50;17.70;;;;;;;21.28;100.00;98322.10;105291;1271;75350;-76
2022/08/19 01:14:58;;;;;;;18.90;17.30;;;;;;;21.27;100.00;98322.00;105334;1271;70390;-77
2022/08/19 01:17:25;;;;;;;18.70;17.20;;;;;;;21.24;100.00;98321.54;105209;1271;73584;-77
2022/08/19 01:19:51;;;;;;;20.30;18.40;;;;;;;21.21;100.00;98322.17;105282;1271;61377;-77
2022/08/19 01:22:27;;;;;;;19.30;17.50;;;;;;;21.21;100.00;98318.62;105305;1268;61342;-77
2022/08/19 01:24:54;;;;;;;20.40;18.60;;;;;;;21.21;100.00;98320.20;105290;1268;76288;-77
2022/08/19 01:27:20;;;;;;;19.00;17.40;;;;;;;21.20;100.00;98312.27;105293;1269;61279;-77
2022/08/19 01:29:47;;;;;;;20.40;18.40;;;;;;;21.18;100.00;98312.48;105304;1268;73268;-77
2022/08/19 01:32:16;;;;;;;20.20;18.50;;;;;;;21.15;100.00;98313.34;105329;1268;61358;-78
2022/08/19 01:34:46;;;;;;;21.00;19.10;;;;;;;21.13;100.00;98317.92;105310;1268;61929;-75
2022/08/19 01:37:14;;;;;;;20.90;19.00;;;;;;;21.10;100.00;98318.84;105282;1268;75534;-77
2022/08/19 01:39:41;;;;;;;21.20;19.30;;;;;;;21.07;100.00;98320.38;105027;1269;70299;-77
2022/08/19 01:42:11;;;;;;;21.80;19.80;;;;;;;21.05;100.00;98320.86;105295;1268;73219;-77
2022/08/19 01:44:40;;;;;;;21.20;19.20;;;;;;;21.03;100.00;98320.98;105281;1268;61250;-77
2022/08/19 01:47:09;;;;;;;22.70;20.50;;;;;;;21.01;100.00;98319.99;105246;1268;61417;-77
2022/08/19 01:49:36;;;;;;;21.90;20.00;;;;;;;20.98;100.00;98318.48;105361;1268;76731;-78
2022/08/19 01:52:04;;;;;;;22.50;20.30;;;;;;;20.94;100.00;98315.36;105324;1268;70307;-79
2022/08/19 01:54:31;;;;;;;23.10;20.90;;;;;;;20.91;100.00;98314.12;105305;1268;73156;-76
2022/08/19 01:57:08;;;;;;;21.50;19.40;;;;;;;20.89;100.00;98307.66;105300;1268;61291;-76
2022/08/19 01:59:36;;;;;;;22.40;20.20;;;;;;;20.89;100.00;98305.74;105417;1268;61244;-77
2022/08/19 02:02:07;;;;;;;23.00;20.80;;;;;;;20.88;100.00;98301.27;105364;1268;75938;-77
2022/08/19 02:04:34;;;;;;;21.30;19.30;;;;;;;20.89;100.00;98303.58;105379;1268;69767;-77
2022/08/19 02:07:01;;;;;;;21.80;19.90;;;;;;;20.90;100.00;98300.52;105348;1268;73949;-78
2022/08/19 02:09:28;;;;;;;22.70;20.70;;;;;;;20.89;100.00;98298.36;105168;1271;61369;-76
2022/08/19 02:11:54;;;;;;;22.20;20.10;;;;;;;20.84;100.00;98299.45;105294;1268;61367;-77
2022/08/19 02:14:21;;;;;;;21.90;20.00;;;;;;;20.81;100.00;98301.25;105318;1271;75349;-77
2022/08/19 02:16:48;;;;;;;23.00;20.90;;;;;;;20.77;100.00;98304.59;105348;1271;69577;-77
2022/08/19 02:19:15;;;;;;;21.40;19.30;;;;;;;20.75;100.00;98300.09;105278;1269;61288;-76
2022/08/19 02:21:43;;;;;;;21.90;20.00;;;;;;;20.73;100.00;98300.59;105304;1270;61398;-76
2022/08/19 02:24:09;;;;;;;26.10;23.70;;;;;;;20.72;100.00;98299.48;105091;1272;61792;-76
2022/08/19 02:26:36;;;;;;;23.40;21.20;;;;;;;20.72;100.00;98300.55;105337;1268;61377;-76
2022/08/19 02:29:03;;;;;;;22.00;20.00;;;;;;;20.73;100.00;98303.98;105330;1269;70486;-76
2022/08/19 02:31:29;;;;;;;21.90;19.90;;;;;;;20.76;100.00;98308.71;105311;1269;73131;-76
2022/08/19 02:33:57;;;;;;;22.60;20.50;;;;;;;20.74;100.00;98311.14;105308;1271;61368;-77
2022/08/19 02:36:24;;;;;;;23.00;20.60;;;;;;;20.71;100.00;98306.09;105371;1268;61387;-76
2022/08/19 02:38:51;;;;;;;21.50;19.50;;;;;;;20.70;100.00;98304.88;105367;1268;74799;-76
2022/08/19 02:41:21;;;;;;;21.10;19.20;;;;;;;20.69;100.00;98303.19;105394;1271;67295;-76
2022/08/19 02:43:48;;;;;;;23.00;20.90;;;;;;;20.69;100.00;98301.36;105098;1271;74537;-77
2022/08/19 02:46:22;;;;;;;22.30;20.10;;;;;;;20.67;100.00;98300.77;105107;1272;61373;-77
2022/08/19 02:48:51;;;;;;;22.10;20.20;;;;;;;20.65;100.00;98299.04;105428;1271;61264;-76
2022/08/19 02:51:27;;;;;;;22.10;20.20;;;;;;;20.62;100.00;98298.27;105416;1270;75338;-77
2022/08/19 02:53:54;;;;;;;23.50;21.40;;;;;;;20.63;100.00;98297.05;105422;1268;69212;-77
2022/08/19 02:56:21;;;;;;;23.50;21.40;;;;;;;20.65;100.00;98297.41;105334;1271;73618;-77
2022/08/19 02:58:48;;;;;;;23.40;21.40;;;;;;;20.65;100.00;98298.73;105105;1271;61304;-77
2022/08/19 03:01:26;;;;;;;23.40;21.20;;;;;;;20.60;100.00;98296.55;105274;1269;61812;-77
2022/08/19 03:03:53;;;;;;;24.20;22.10;;;;;;;20.57;100.00;98301.75;105310;1268;75081;-76
2022/08/19 03:06:20;;;;;;;24.00;21.90;;;;;;;20.58;100.00;98301.88;105346;1271;69506;-76
2022/08/19 03:08:49;;;;;;;25.10;22.70;;;;;;;20.61;100.00;98308.35;105273;1270;74175;-76
2022/08/19 03:11:19;;;;;;;24.00;21.80;;;;;;;20.59;100.00;98301.88;105086;1271;61301;-79
2022/08/19 03:13:45;;;;;;;25.50;23.30;;;;;;;20.59;100.00;98304.58;105532;1268;61266;-78
2022/08/19 03:16:12;;;;;;;26.30;23.80;;;;;;;20.57;100.00;98305.95;105292;1271;61269;-77
2022/08/19 03:18:39;;;;;;;24.60;22.40;;;;;;;20.54;100.00;98305.00;105332;1268;69192;-77
2022/08/19 03:21:06;;;;;;;23.80;21.50;;;;;;;20.54;100.00;98301.98;105291;1271;72963;-77
2022/08/19 03:23:33;;;;;;;23.80;21.60;;;;;;;20.53;100.00;98302.05;105292;1271;61176;-77
2022/08/19 03:26:04;;;;;;;23.60;21.50;;;;;;;20.53;100.00;98297.17;105315;1270;61346;-79
2022/08/19 03:28:31;;;;;;;24.40;22.20;;;;;;;20.50;100.00;98294.77;105193;1272;74601;-77
2022/08/19 03:31:07;;;;;;;23.50;21.30;;;;;;;20.50;100.00;98296.52;105240;1271;69166;-77
2022/08/19 03:33:34;;;;;;;24.20;22.00;;;;;;;20.48;100.00;98302.29;105320;1271;73420;-78
2022/08/19 03:36:02;;;;;;;24.40;21.90;;;;;;;20.45;100.00;98302.50;105101;1272;61534;-75
2022/08/19 03:38:30;;;;;;;23.60;21.50;;;;;;;20.39;100.00;98297.68;105089;1271;61403;-77
2022/08/19 03:40:56;;;;;;;25.10;22.80;;;;;;;20.36;100.00;98293.80;105282;1268;76549;-79
2022/08/19 03:43:24;;;;;;;24.20;22.00;;;;;;;20.34;100.00;98289.09;105313;1271;61354;-77
2022/08/19 03:46:08;;;;;;;24.50;22.10;;;;;;;20.34;100.00;98290.59;105315;1271;73122;-78
2022/08/19 03:48:36;;;;;;;24.90;22.60;;;;;;;20.38;100.00;98291.95;105234;1268;61165;-78
2022/08/19 03:51:03;;;;;;;24.70;22.30;;;;;;;20.41;100.00;98300.95;105333;1271;61300;-77
2022/08/19 03:53:31;;;;;;;24.00;21.70;;;;;;;20.43;100.00;98309.22;105321;1271;75070;-77
2022/08/19 03:55:59;;;;;;;24.10;21.60;;;;;;;20.44;100.00;98317.33;105385;1271;68686;-76
2022/08/19 03:58:28;;;;;;;23.50;21.30;;;;;;;20.46;100.00;98318.56;105331;1271;73929;-76
2022/08/19 04:00:56;;;;;;;23.40;21.30;;;;;;;20.51;100.00;98314.56;105399;1271;61294;-77
2022/08/19 04:03:24;;;;;;;24.40;22.20;;;;;;;20.54;100.00;98321.77;105038;1271;61307;-76
2022/08/19 04:05:50;;;;;;;23.00;21.00;;;;;;;20.56;100.00;98329.13;105044;1271;72802;-78
2022/08/19 04:08:19;;;;;;;22.60;20.70;;;;;;;20.61;100.00;98333.09;105341;1271;61281;-77
2022/08/19 04:10:48;;;;;;;23.00;20.90;;;;;;;20.67;100.00;98331.07;105418;1270;72718;-77
2022/08/19 04:13:16;;;;;;;22.70;20.60;;;;;;;20.73;100.00;98332.74;105443;1271;61518;-76
2022/08/19 04:15:46;;;;;;;21.90;19.90;;;;;;;20.80;100.00;98328.57;105315;1271;61329;-75
2022/08/19 04:18:13;;;;;;;22.00;20.00;;;;;;;20.89;100.00;98329.13;105504;1271;76086;-75
2022/08/19 04:20:45;;;;;;;23.00;20.90;;;;;;;21.00;100.00;98333.08;105304;1271;69418;-76
2022/08/19 04:23:13;;;;;;;21.40;19.30;;;;;;;21.08;100.00;98335.40;105404;1271;73399;-77
2022/08/19 04:25:43;;;;;;;21.80;19.70;;;;;;;21.18;100.00;98345.02;105277;1271;61327;-80
2022/08/19 04:28:12;;;;;;;19.90;18.20;;;;;;;21.37;100.00;98349.92;105326;1269;61341;-77
2022/08/19 04:30:41;;;;;;;21.70;19.80;;;;;;;21.56;100.00;98353.73;105424;1271;76083;-77
2022/08/19 04:33:09;;;;;;;21.50;19.30;;;;;;;21.79;100.00;98354.87;105471;1269;68668;-78
2022/08/19 04:35:39;;;;;;;20.40;18.50;;;;;;;22.03;100.00;98354.60;105330;1271;74404;-77
2022/08/19 04:38:06;;;;;;;20.30;18.30;;;;;;;22.30;100.00;98354.37;105471;1270;61170;-77
2022/08/19 04:43:24;;;;;;;19.70;17.80;;;;;;;22.93;100.00;98359.45;105078;1271;75195;-77
2022/08/19 04:45:51;;;;;;;19.00;17.00;;;;;;;23.25;100.00;98360.71;105344;1271;69594;-77
2022/08/19 04:48:25;;;;;;;19.10;17.30;;;;;;;23.58;100.00;98361.64;105281;1271;73415;-76
2022/08/19 04:50:57;;;;;;;18.70;16.80;;;;;;;23.92;100.00;98363.36;105295;1271;61364;-77
2022/08/19 04:53:32;;;;;;;18.40;16.70;;;;;;;24.20;100.00;98357.84;105002;1271;61382;-77
2022/08/19 04:56:03;;;;;;;18.10;16.50;;;;;;;24.42;100.00;98359.40;105232;1268;75180;-75
2022/08/19 04:58:30;;;;;;;17.30;15.80;;;;;;;24.51;100.00;98364.02;105291;1271;69176;-76
2022/08/19 05:00:59;;;;;;;18.40;16.70;;;;;;;24.45;100.00;98364.66;105249;1269;61256;-77
2022/08/19 05:03:26;;;;;;;17.40;15.70;;;;;;;24.56;100.00;98367.70;105309;1271;61425;-76
2022/08/19 05:05:53;;;;;;;18.70;16.90;;;;;;;24.66;100.00;98360.75;105310;1268;62097;-77
2022/08/19 05:08:21;;;;;;;17.20;15.80;;;;;;;24.75;100.00;98357.83;105292;1268;61230;-77
2022/08/19 05:10:50;;;;;;;17.80;16.20;;;;;;;24.94;100.00;98356.85;105337;1269;69909;-76
2022/08/19 05:13:19;;;;;;;18.40;16.70;;;;;;;24.94;100.00;98362.48;105320;1268;74638;-77
2022/08/19 05:15:57;;;;;;;18.50;16.80;;;;;;;24.88;100.00;98363.98;105305;1268;61295;-78
2022/08/19 05:23:58;;;;;;;16.60;15.00;;;;;;;25.23;100.00;98358.90;105262;1268;70407;-72
2022/08/19 05:26:25;;;;;;;16.70;15.10;;;;;;;25.34;100.00;98358.62;105269;1269;73325;-72
2022/08/19 05:28:53;;;;;;;16.50;15.00;;;;;;;25.69;100.00;98362.11;105247;1268;61434;-71
2022/08/19 05:31:19;;;;;;;16.20;14.70;;;;;;;25.95;100.00;98365.42;105349;1268;61230;-72
2022/08/19 05:33:46;;;;;;;16.20;14.70;;;;;;;25.96;100.00;98367.45;105266;1268;74495;-71
2022/08/19 05:36:14;;;;;;;16.50;14.90;;;;;;;26.16;100.00;98370.40;105279;1268;69638;-71
2022/08/19 05:38:40;;;;;;;14.60;13.40;;;;;;;26.15;100.00;98365.04;105246;1268;72572;-71
2022/08/19 05:41:09;;;;;;;16.40;14.80;;;;;;;26.24;100.00;98363.10;105265;1268;61269;-70
2022/08/19 05:43:37;;;;;;;15.40;13.80;;;;;;;26.41;100.00;98359.96;105248;1268;61893;-71
2022/08/19 05:46:06;;;;;;;13.90;12.70;;;;;;;26.44;100.00;98364.30;105311;1268;75280;-71
2022/08/19 05:48:34;;;;;;;14.50;12.90;;;;;;;26.63;100.00;98365.44;105272;1268;68632;-72
2022/08/19 05:51:08;;;;;;;14.70;13.20;;;;;;;26.80;100.00;98367.49;105423;1268;73271;-70
2022/08/19 05:53:35;;;;;;;14.00;12.70;;;;;;;26.97;100.00;98368.65;105293;1268;61301;-71
2022/08/19 05:56:09;;;;;;;14.10;12.50;;;;;;;27.25;100.00;98363.66;105272;1268;61291;-71
2022/08/19 05:58:37;;;;;;;14.20;12.60;;;;;;;27.58;100.00;98358.82;105261;1268;75198;-72
2022/08/19 06:01:10;;;;;;;14.00;12.90;;;;;;;27.71;100.00;98355.23;105298;1268;67830;-72
2022/08/19 06:03:37;;;;;;;12.90;11.70;;;;;;;27.93;100.00;98354.42;105325;1268;73221;-72
2022/08/19 06:06:05;;;;;;;14.00;12.70;;;;;;;27.86;100.00;98354.17;105260;1270;61265;-72
2022/08/19 06:08:33;;;;;;;13.30;11.90;;;;;;;27.93;100.00;98360.29;105057;1269;61281;-80
2022/08/19 06:11:14;;;;;;;16.80;12.20;;;;;;;28.06;100.00;98369.05;105740;1271;75445;-84
2022/08/19 06:13:41;;;;;;;13.10;12.00;;;;;;;28.22;100.00;98376.84;105757;1271;68114;-86
2022/08/19 06:16:07;;;;;;;13.60;12.20;;;;;;;28.43;100.00;98376.25;105777;1271;72936;-84
2022/08/19 06:18:34;;;;;;;13.10;11.80;;;;;;;28.65;100.00;98383.84;106013;1271;61345;-84
2022/08/19 06:21:03;;;;;;;13.00;11.90;;;;;;;28.82;99.83;98381.29;105758;1271;61141;-90
2022/08/19 06:23:30;;;;;;;12.70;11.70;;;;;;;28.78;99.13;98383.52;106248;1270;73327;-92
2022/08/19 06:25:57;;;;;;;12.80;11.70;;;;;;;28.74;96.33;98389.81;105836;1271;68867;-88
2022/08/19 06:28:23;;;;;;;13.60;12.50;;;;;;;28.78;96.61;98393.00;105688;1271;72610;-86
2022/08/19 06:30:51;;;;;;;13.50;12.10;;;;;;;28.87;96.14;98385.71;105538;1273;61263;-84
2022/08/19 06:33:17;;;;;;;14.20;13.00;;;;;;;29.01;95.31;98386.05;105919;1271;61344;-82
2022/08/19 06:35:44;;;;;;;13.50;12.40;;;;;;;29.18;94.56;98387.05;105790;1268;61361;-84
2022/08/19 06:38:10;;;;;;;12.60;11.50;;;;;;;29.23;94.65;98386.62;105910;1271;70505;-84
2022/08/19 06:40:37;;;;;;;13.20;12.00;;;;;;;29.22;94.22;98387.58;105891;1269;74525;-83
2022/08/19 06:43:04;;;;;;;13.60;12.30;;;;;;;29.14;93.69;98394.34;105937;1271;61262;-82
2022/08/19 06:45:31;;;;;;;14.00;12.70;;;;;;;29.23;93.77;98401.44;105430;1271;61300;-71
2022/08/19 06:47:57;;;;;;;13.90;12.70;;;;;;;29.36;93.14;98402.83;105256;1271;76095;-71
2022/08/19 06:50:24;;;;;;;14.30;12.90;;;;;;;29.33;92.76;98402.15;105276;1271;70154;-72
2022/08/19 06:52:52;;;;;;;12.60;11.40;;;;;;;29.44;92.75;98409.72;105425;1271;73452;-71
2022/08/19 06:55:18;;;;;;;13.50;12.30;;;;;;;29.69;92.31;98414.70;105275;1271;61288;-71
2022/08/19 06:57:45;;;;;;;12.50;11.50;;;;;;;29.77;91.88;98412.52;105252;1271;61237;-71
2022/08/19 07:00:15;;;;;;;12.60;11.50;;;;;;;29.88;92.02;98414.58;105242;1271;75539;-70
2022/08/19 07:02:43;;;;;;;12.90;11.90;;;;;;;30.02;91.64;98412.83;105254;1271;68258;-71
2022/08/19 07:05:09;;;;;;;12.60;11.60;;;;;;;30.16;91.55;98413.66;105280;1271;74722;-71
2022/08/19 07:07:36;;;;;;;12.00;11.00;;;;;;;30.29;91.17;98411.44;105020;1271;61380;-71
2022/08/19 07:10:03;;;;;;;13.10;12.10;;;;;;;30.44;91.10;98412.77;105265;1270;61226;-72
2022/08/19 07:12:35;;;;;;;12.50;11.40;;;;;;;30.51;89.61;98412.64;105257;1271;76142;-72
2022/08/19 07:15:04;;;;;;;11.60;10.70;;;;;;;30.52;88.45;98417.92;105234;1271;69229;-72
2022/08/19 07:17:31;;;;;;;12.20;11.00;;;;;;;30.59;88.49;98421.04;105278;1271;73225;-71
2022/08/19 07:19:58;;;;;;;13.40;12.00;;;;;;;30.70;86.95;98427.39;105269;1270;61261;-72
2022/08/19 07:22:25;;;;;;;11.30;10.20;;;;;;;30.80;87.04;98432.38;104983;1272;61422;-72
2022/08/19 07:24:52;;;;;;;12.10;10.60;;;;;;;31.01;87.15;98433.25;105287;1271;61265;-72
2022/08/19 07:27:19;;;;;;;11.00;10.20;;;;;;;31.19;86.45;98438.73;105292;1271;69199;-72
2022/08/19 07:29:45;;;;;;;12.70;11.50;;;;;;;31.31;86.10;98434.58;105061;1271;74171;-72
2022/08/19 07:32:12;;;;;;;12.20;11.10;;;;;;;31.48;85.88;98429.64;105238;1271;61391;-71
2022/08/19 07:34:38;;;;;;;12.40;11.30;;;;;;;31.53;84.19;98432.30;105275;1271;61267;-71
2022/08/19 07:37:06;;;;;;;12.40;11.30;;;;;;;31.59;84.23;98430.63;105257;1271;76000;-72
2022/08/19 07:39:35;;;;;;;11.80;10.80;;;;;;;31.63;83.59;98431.58;104962;1272;69224;-71
2022/08/19 07:42:07;;;;;;;11.90;11.00;;;;;;;31.72;84.25;98433.16;105353;1271;73154;-71
2022/08/19 07:44:34;;;;;;;12.00;10.60;;;;;;;31.84;83.62;98441.77;105277;1271;61394;-72
2022/08/19 07:47:01;;;;;;;13.00;11.70;;;;;;;31.92;82.39;98442.13;105288;1271;61345;-71
2022/08/19 07:49:28;;;;;;;11.20;10.40;;;;;;;31.99;82.56;98440.53;105369;1271;76117;-72
2022/08/19 07:52:01;;;;;;;12.10;11.00;;;;;;;32.12;80.36;98441.97;105254;1271;68627;-72
2022/08/19 07:54:31;;;;;;;13.50;12.20;;;;;;;32.15;79.58;98440.13;105267;1271;72630;-70
2022/08/19 07:56:58;;;;;;;12.60;11.40;;;;;;;32.15;79.01;98447.97;105232;1271;61266;-71
2022/08/19 07:59:24;;;;;;;12.60;11.30;;;;;;;32.27;79.50;98449.44;105318;1271;61291;-71
2022/08/19 08:01:52;;;;;;;11.60;10.50;;;;;;;32.30;78.51;98452.49;104999;1271;75190;-71
2022/08/19 08:09:52;;;;;;;12.20;10.80;;;;;;;32.34;78.74;98461.98;105236;1271;61262;-71
2022/08/19 08:12:28;;;;;;;11.10;10.20;;;;;;;32.34;77.48;98462.86;105453;1271;61172;-71
2022/08/19 08:14:57;;;;;;;12.40;11.40;;;;;;;32.23;77.66;98462.00;105257;1271;75187;-71
2022/08/19 08:17:27;;;;;;;10.20;9.30;;;;;;;32.27;78.47;98458.52;105287;1271;70601;-71
2022/08/19 08:19:54;;;;;;;11.60;10.60;;;;;;;32.40;78.25;98461.61;105360;1270;73186;-71
2022/08/19 08:25:11;;;;;;;10.70;9.60;;;;;;;32.50;76.65;98461.04;105295;1270;61246;-71
2022/08/19 08:27:40;;;;;;;10.30;9.20;;;;;;;32.63;75.22;98457.66;105334;1269;75829;-71
2022/08/19 08:30:10;;;;;;;11.90;10.90;;;;;;;32.76;75.38;98457.07;105249;1271;68409;-71
2022/08/19 08:32:38;;;;;;;14.80;10.80;;;;;;;32.82;75.32;98451.62;105425;1271;74185;-71
2022/08/19 08:35:08;;;;;;;10.10;9.20;;;;;;;33.07;75.56;98450.60;105379;1271;61302;-71
2022/08/19 08:37:35;;;;;;;28.20;10.50;;;;;;;33.30;74.20;98446.33;105403;1271;61169;-72
2022/08/19 08:40:06;;;;;;;10.60;9.60;;;;;;;33.43;73.34;98444.89;105256;1271;75184;-72
2022/08/19 08:42:39;;;;;;;10.30;9.40;;;;;;;33.56;73.02;98448.27;105300;1270;69485;-72
2022/08/19 08:45:15;;;;;;;10.30;9.40;;;;;;;33.53;71.96;98440.66;105290;1271;73192;-72
2022/08/19 08:47:47;;;;;;;11.10;10.00;;;;;;;33.54;71.99;98439.90;105378;1271;61170;-72
2022/08/19 08:50:19;;;;;;;10.50;9.50;;;;;;;33.55;71.99;98441.70;105535;1270;61294;-72
2022/08/19 08:52:50;;;;;;;14.30;10.10;;;;;;;33.55;71.24;98438.59;105269;1271;75735;-72
2022/08/19 08:55:21;;;;;;;10.40;9.50;;;;;;;33.54;70.93;98435.98;105480;1270;61265;-73
2022/08/19 08:57:54;;;;;;;10.50;9.50;;;;;;;33.57;70.20;98429.60;105264;1271;74450;-72
2022/08/19 09:00:28;;;;;;;10.50;9.40;;;;;;;33.55;69.89;98430.23;105248;1272;61288;-72
2022/08/19 09:02:57;;;;;;;10.50;9.50;;;;;;;33.56;69.35;98426.48;105348;1271;61155;-72
2022/08/19 09:05:38;;;;;;;10.60;9.50;;;;;;;33.59;69.35;98427.06;105498;1271;75177;-73
2022/08/19 09:08:10;;;;;;;11.30;10.30;;;;;;;33.73;69.02;98429.86;105286;1271;61370;-72
2022/08/19 09:10:42;;;;;;;11.00;9.90;;;;;;;33.85;68.86;98430.37;105253;1272;74514;-73
2022/08/19 09:13:27;;;;;;;10.10;9.20;;;;;;;34.05;69.66;98426.89;105254;1271;61352;-73
2022/08/19 09:16:01;;;;;;;15.60;9.20;;;;;;;34.25;69.96;98419.20;105266;1271;61263;-72
2022/08/19 09:18:57;;;;;;;11.00;8.60;;;;;;;34.38;68.79;98426.38;105270;1271;75200;-74
2022/08/19 09:21:25;;;;;;;13.40;9.20;;;;;;;34.38;67.51;98427.23;105214;1271;61450;-73
2022/08/19 09:23:52;;;;;;;15.90;10.00;;;;;;;34.33;66.56;98427.62;105313;1271;64468;-74
2022/08/19 09:26:22;;;;;;;10.70;8.10;;;;;;;34.25;66.48;98428.64;105249;1271;61380;-73
2022/08/19 09:28:52;;;;;;;8.90;8.20;;;;;;;34.22;66.87;98428.69;105164;1274;62338;-73
2022/08/19 09:31:22;;;;;;;10.70;9.50;;;;;;;34.14;67.02;98437.23;105380;1269;72991;-73
2022/08/19 09:33:50;;;;;;;8.70;7.80;;;;;;;34.07;67.54;98438.70;105261;1271;61515;-73
2022/08/19 09:36:19;;;;;;;9.80;8.40;;;;;;;34.04;67.91;98438.66;105279;1271;65132;-73
2022/08/19 09:38:46;;;;;;;8.70;8.00;;;;;;;33.99;68.08;98434.54;105354;1271;61302;-73
2022/08/19 09:41:16;;;;;;;10.80;9.20;;;;;;;33.98;68.36;98435.25;105243;1271;61157;-73
2022/08/19 09:43:46;;;;;;;9.60;8.50;;;;;;;33.99;68.44;98432.16;105396;1271;76121;-72
2022/08/19 09:46:13;;;;;;;14.20;9.80;;;;;;;34.03;67.95;98436.05;105206;1270;67603;-72
2022/08/19 09:48:41;;;;;;;10.00;9.00;;;;;;;34.09;67.70;98432.50;103675;1274;1847521;-73
2022/08/19 09:51:17;;;;;;;10.50;8.80;;;;;;;34.17;67.49;98428.45;105261;1269;61109;-74
2022/08/19 09:53:45;;;;;;;10.70;9.70;;;;;;;34.30;66.95;98429.77;105285;1271;61285;-73
2022/08/19 09:56:13;;;;;;;11.50;10.50;;;;;;;34.38;66.30;98427.20;105367;1271;67627;-74
2022/08/19 09:58:40;;;;;;;12.10;10.90;;;;;;;34.45;66.07;98430.93;105278;1269;61267;-73
2022/08/19 10:01:08;;;;;;;13.00;9.70;;;;;;;34.54;66.55;98430.35;105279;1270;64765;-75
2022/08/19 10:03:36;;;;;;;10.60;9.70;;;;;;;34.70;66.21;98429.86;104997;1274;61199;-72
2022/08/19 10:06:04;;;;;;;12.20;9.70;;;;;;;34.85;65.03;98424.34;105038;1271;61265;-72
2022/08/19 10:08:35;;;;;;;11.90;9.90;;;;;;;35.20;65.10;98423.60;105293;1271;75757;-70
2022/08/19 10:11:04;;;;;;;11.70;10.60;;;;;;;35.54;64.75;98421.94;105260;1271;61238;-71
2022/08/19 10:13:31;;;;;;;12.00;10.80;;;;;;;35.71;62.73;98416.98;105238;1271;65691;-74
2022/08/19 10:16:08;;;;;;;11.80;10.80;;;;;;;35.77;61.85;98412.24;105256;1271;61367;-72
2022/08/19 10:18:36;;;;;;;10.70;9.60;;;;;;;35.79;60.73;98415.35;105358;1271;61293;-72
2022/08/19 10:21:10;;;;;;;13.10;10.20;;;;;;;35.71;58.71;98420.54;105025;1271;67435;-72
2022/08/19 10:23:40;;;;;;;11.70;9.80;;;;;;;35.67;58.18;98421.21;105266;1271;61979;-74
2022/08/19 10:26:06;;;;;;;10.20;9.20;;;;;;;35.60;57.88;98422.42;105242;1270;64677;-74
2022/08/19 10:28:38;;;;;;;8.90;8.10;;;;;;;35.47;57.79;98429.75;105014;1271;61359;-73
2022/08/19 10:31:07;;;;;;;10.70;8.40;;;;;;;35.22;57.56;98434.42;104983;1274;61209;-72
2022/08/19 10:33:35;;;;;;;8.30;7.60;;;;;;;35.09;58.48;98431.25;105238;1271;66411;-70
2022/08/19 10:36:09;;;;;;;8.60;7.80;;;;;;;34.98;58.71;98431.00;105255;1271;61362;-72
2022/08/19 10:38:36;;;;;;;9.60;8.50;;;;;;;34.82;58.84;98422.90;105271;1270;75084;-72
2022/08/19 10:41:18;;;;;;;9.20;8.20;;;;;;;34.72;59.41;98422.89;105301;1271;61336;-71
2022/08/19 10:43:46;;;;;;;9.00;8.00;;;;;;;34.71;59.66;98418.56;105249;1270;61319;-70
2022/08/19 10:46:15;;;;;;;11.10;8.30;;;;;;;34.75;59.81;98416.69;105258;1271;67572;-72
2022/08/19 10:48:43;;;;;;;9.80;8.90;;;;;;;34.73;59.52;98415.30;105246;1271;70337;-71
2022/08/19 10:53:57;;;;;;;9.80;8.40;;;;;;;34.74;59.67;98409.77;105257;1271;61167;-71
2022/08/19 10:59:12;;;;;;;9.60;8.80;;;;;;;34.77;59.87;98405.84;105225;1271;66392;-72
2022/08/19 11:01:39;;;;;;;;;;;;;;;34.87;59.76;98394.60;105205;1271;61291;-72
2022/08/19 11:04:09;;;;;;;10.50;9.10;;;;;;;34.91;59.45;98389.34;105250;1271;64445;-72
2022/08/19 11:06:38;;;;;;;12.30;9.00;;;;;;;34.91;58.93;98385.02;105266;1271;61240;-72
2022/08/19 11:09:05;;;;;;;13.10;9.00;;;;;;;34.91;58.48;98383.76;105352;1271;61371;-72
2022/08/19 11:11:32;;;;;;;9.40;8.60;;;;;;;34.87;58.30;98387.42;105290;1271;76158;-71
2022/08/19 11:13:58;;;;;;;9.30;8.50;;;;;;;34.82;57.08;98384.14;105253;1271;61145;-70
2022/08/19 11:16:27;;;;;;;8.60;8.00;;;;;;;34.86;57.70;98381.27;104959;1271;61235;-72
2022/08/19 11:18:58;;;;;;;9.10;8.10;;;;;;;34.95;58.04;98380.44;105270;1271;61352;-71
2022/08/19 11:21:28;;;;;;;8.90;8.10;;;;;;;35.05;57.88;98381.72;105362;1269;61361;-71
2022/08/19 11:23:58;;;;;;;9.20;8.30;;;;;;;35.17;57.28;98381.02;105595;1270;67348;-72
2022/08/19 11:26:25;;;;;;;9.30;8.40;;;;;;;35.26;57.09;98375.64;105262;1271;61166;-71
2022/08/19 11:28:54;;;;;;;8.30;7.50;;;;;;;35.33;57.07;98374.18;105273;1271;64424;-72
2022/08/19 11:31:27;;;;;;;11.80;7.10;;;;;;;35.43;57.37;98374.99;105357;1271;61371;-72
2022/08/19 11:33:56;;;;;;;9.50;6.60;;;;;;;35.52;56.76;98376.86;105384;1271;61294;-71
2022/08/19 11:36:23;;;;;;;9.40;7.10;;;;;;;35.63;56.31;98377.98;105458;1271;75213;-71